Aeroporto :
LOGIN :

Iscrizione | Disclaimer

   EN    FR    IT 

 










Sommario :    VFR   VFR Marginale   IFR   IFR Intensivo   IFR Molto Intensivo
Visibilità : 
Base nubi : 
>= 8 km
>= 3000ft
5 / 8 km
1000 / 3000 ft
1500m / 5 km
500 / 1000 ft
800 / 1500m
200 / 500 ft
< 800m
< 200 ft
Simboli :   Temporali  Nebbia  Neve Forte  Precipitazioni Forti  Vento > 20 kt
SIGMETs :   Varie  Temporali  Ghiacco  Turbolenza  Onda orograficha  Ceneri Vulcaniche






- Altitudine del aeroporto : 433 ft


LFOC - Chateaudun

ULTIMO METAR :
  • 190730Z AUTO 29009KT 9999 BKN008 OVC015 15/14 Q1013

METARs OBSOLETI :
  • 190700Z AUTO 29008KT 9999 OVC007/// ///TCU 14/14 Q1013
  • 190630Z AUTO 27011KT 9999 BKN006/// OVC017/// ///TCU 14/14 Q1013
  • 190600Z AUTO 27011KT 9999 -RA BKN006/// OVC018/// ///CB 14/14 Q1012
  • 190530Z AUTO 28008KT 250V310 7000 RA OVC005/// ///CB 14/14 Q1012
  • 190500Z AUTO 26011KT 6000 RA BKN006/// OVC016/// ///CB 14/14 Q1012

Previsioni scadute.



MetMap, La meteo Aeronautica in un colpo d'occhio ! - Copyright ORBIFLY Dicembre 2007 - Disclaimer

ORBIFLY MET'MAP TEAM :

Programmazione e sviluppo : Alexandra Zaïnal
Concezione : Baudouin d'Aumeries
Aiuto per la programmazione : Marc-Olivier Méhu
Supporto tecnico e logistico : Manuel Goepfert
Aiuto per la traduzione : Arnaldo La Scala

Contatto : metmap@orbifly.com




FONTI E CREDITI :

   NOAA